Bridgeport, New York
Current Conditions -  °F | °C
As of 2:54 AM on Monday 26 Jan 2015 (Local Time) from KSYR Reporting Station
Broken Clouds Broken Clouds  
Wind Chill: -6°   Ceiling: 16000
Heat Index:   Visibility: 10mi
Dew Point: -1°   Wind: 6mph
Humidity: 76%   Direction: 80°E
Pressure: 30.07"   Gusts: NA
Location:  43.15°N, 75.97°W
Report Text: KSYR 260754Z 08005KT 10SM BKN160 M15/M18 A3007 RMK AO2 SLP189 T11501183 $
Loading
Personal Weather Stations






























Interactive Weather Map New forecast layout! Learn more

10-Day Weather Forecast

Advertisements
Track Severe Weather on mobile